Time;durP1;ratioP1;P1;durP2;ratioP2;P2;SDS_P1;SDS_P2;PMS_P1;PMS_P2;Temp;Humidity;BMP_temperature;BMP_pressure;BME280_temperature;BME280_humidity;BME280_pressure;Samples;Min_cycle;Max_cycle;Signal;HPM_P1;HPM_P2
2022/03/03 00:02:42;;;;;;;1999.90;999.90;;;;;;;;;;4936338;29;20617;-70
2022/03/03 00:05:27;;;;;;;1999.90;999.90;;;;;;;;;;4936555;29;20229;-70
2022/03/03 00:08:14;;;;;;;1999.90;999.90;;;;;;;;;;4936018;29;20205;-69
2022/03/03 00:10:59;;;;;;;1999.90;999.90;;;;;;;;;;4936184;29;20653;-70
2022/03/03 00:13:44;;;;;;;1999.90;999.90;;;;;;;;;;4936985;29;20204;-70
2022/03/03 00:16:29;;;;;;;1999.90;999.90;;;;;;;;;;4936211;29;20236;-70
2022/03/03 00:19:14;;;;;;;1999.90;999.90;;;;;;;;;;4935523;29;20217;-70
2022/03/03 00:21:59;;;;;;;1999.90;999.90;;;;;;;;;;4936324;29;20237;-70
2022/03/03 00:24:46;;;;;;;1999.90;999.90;;;;;;;;;;4935969;29;20213;-70
2022/03/03 00:27:30;;;;;;;1999.90;999.90;;;;;;;;;;4916987;29;20225;-69
2022/03/03 00:30:15;;;;;;;1999.90;999.90;;;;;;;;;;4922242;29;20434;-70
2022/03/03 00:33:00;;;;;;;1999.90;999.90;;;;;;;;;;4936254;29;20205;-70
2022/03/03 00:35:45;;;;;;;1999.90;999.90;;;;;;;;;;4936083;29;20306;-70
2022/03/03 00:38:30;;;;;;;1999.90;999.90;;;;;;;;;;4935263;29;20205;-70
2022/03/03 00:41:18;;;;;;;1999.90;999.90;;;;;;;;;;4935738;29;20233;-71
2022/03/03 00:44:03;;;;;;;1999.90;999.90;;;;;;;;;;4936155;29;20220;-70
2022/03/03 00:46:48;;;;;;;1999.90;999.90;;;;;;;;;;4935030;29;20716;-70
2022/03/03 00:49:33;;;;;;;1999.90;999.90;;;;;;;;;;4934647;29;20716;-70
2022/03/03 00:52:18;;;;;;;1999.90;999.90;;;;;;;;;;4936038;29;20311;-70
2022/03/03 00:55:03;;;;;;;1999.90;999.90;;;;;;;;;;4936173;29;20240;-70
2022/03/03 00:57:49;;;;;;;1999.90;999.90;;;;;;;;;;4935132;29;20437;-70
2022/03/03 01:00:34;;;;;;;1999.90;999.90;;;;;;;;;;4935117;29;20205;-71
2022/03/03 01:03:19;;;;;;;1999.90;999.90;;;;;;;;;;4935778;29;20284;-70
2022/03/03 01:06:04;;;;;;;1999.90;999.90;;;;;;;;;;4935599;29;20269;-70
2022/03/03 01:08:48;;;;;;;1999.90;999.90;;;;;;;;;;4934667;29;20225;-70
2022/03/03 01:11:33;;;;;;;1999.90;999.90;;;;;;;;;;4935569;29;20244;-70
2022/03/03 01:14:22;;;;;;;1999.90;999.90;;;;;;;;;;4935423;29;20254;-70
2022/03/03 01:17:07;;;;;;;1999.90;999.90;;;;;;;;;;4935329;29;20712;-70
2022/03/03 01:19:52;;;;;;;1999.90;999.90;;;;;;;;;;4933702;29;20708;-71
2022/03/03 01:22:37;;;;;;;1999.90;999.90;;;;;;;;;;4935143;29;20232;-70
2022/03/03 01:25:22;;;;;;;1999.90;999.90;;;;;;;;;;4935050;29;20569;-70
2022/03/03 01:28:07;;;;;;;1999.90;999.90;;;;;;;;;;4934489;29;20217;-70
2022/03/03 01:30:54;;;;;;;1999.90;999.90;;;;;;;;;;4916278;29;20233;-70
2022/03/03 01:33:38;;;;;;;1999.90;999.90;;;;;;;;;;4920824;29;20297;-70
2022/03/03 01:36:23;;;;;;;1999.90;999.90;;;;;;;;;;4935123;29;20354;-69
2022/03/03 01:39:09;;;;;;;1999.90;999.90;;;;;;;;;;4934483;29;20208;-70
2022/03/03 01:41:54;;;;;;;1999.90;999.90;;;;;;;;;;4935318;29;20229;-69
2022/03/03 01:44:41;;;;;;;1999.90;999.90;;;;;;;;;;4934829;29;20214;-70
2022/03/03 01:47:28;;;;;;;1999.90;999.90;;;;;;;;;;4935081;29;20186;-70
2022/03/03 01:50:13;;;;;;;1999.90;999.90;;;;;;;;;;4935031;29;20209;-70
2022/03/03 01:52:58;;;;;;;1999.90;999.90;;;;;;;;;;4934542;29;20723;-70
2022/03/03 01:55:43;;;;;;;1999.90;999.90;;;;;;;;;;4915698;29;20225;-70
2022/03/03 01:58:28;;;;;;;1999.90;999.90;;;;;;;;;;4920297;29;20209;-69
2022/03/03 02:01:13;;;;;;;1999.90;999.90;;;;;;;;;;4934882;29;20245;-70
2022/03/03 02:04:00;;;;;;;1999.90;999.90;;;;;;;;;;4934388;29;20221;-70
2022/03/03 02:06:45;;;;;;;1999.90;999.90;;;;;;;;;;4935101;29;20296;-71
2022/03/03 02:09:30;;;;;;;1999.90;999.90;;;;;;;;;;4934115;29;20213;-70
2022/03/03 02:12:15;;;;;;;1999.90;999.90;;;;;;;;;;4934511;29;20229;-70
2022/03/03 02:15:00;;;;;;;1999.90;999.90;;;;;;;;;;4934254;29;20273;-70
2022/03/03 02:17:45;;;;;;;1999.90;999.90;;;;;;;;;;4934309;29;20210;-70
2022/03/03 02:20:31;;;;;;;1999.90;999.90;;;;;;;;;;4915587;29;20214;-70
2022/03/03 02:23:18;;;;;;;1999.90;999.90;;;;;;;;;;4919530;29;20233;-70
2022/03/03 02:26:03;;;;;;;1999.90;999.90;;;;;;;;;;4934935;29;20201;-69
2022/03/03 02:28:49;;;;;;;1999.90;999.90;;;;;;;;;;4933606;29;20285;-70
2022/03/03 02:31:34;;;;;;;1999.90;999.90;;;;;;;;;;4937399;29;20277;-70
2022/03/03 02:34:19;;;;;;;1999.90;999.90;;;;;;;;;;4937042;29;20556;-70
2022/03/03 02:37:06;;;;;;;1999.90;999.90;;;;;;;;;;4937637;29;20225;-70
2022/03/03 02:39:51;;;;;;;1999.90;999.90;;;;;;;;;;4936616;29;20208;-70
2022/03/03 02:42:35;;;;;;;1999.90;999.90;;;;;;;;;;4937455;29;20606;-71
2022/03/03 02:45:21;;;;;;;1999.90;999.90;;;;;;;;;;4919051;29;20214;-70
2022/03/03 02:48:06;;;;;;;1999.90;999.90;;;;;;;;;;4927427;29;20216;-70
2022/03/03 02:50:51;;;;;;;1999.90;999.90;;;;;;;;;;4937460;29;20795;-70
2022/03/03 02:53:37;;;;;;;1999.90;999.90;;;;;;;;;;4937072;29;20314;-70
2022/03/03 02:56:23;;;;;;;1999.90;999.90;;;;;;;;;;4937383;29;20278;-70
2022/03/03 02:59:07;;;;;;;1999.90;999.90;;;;;;;;;;4936427;29;20451;-71
2022/03/03 03:01:52;;;;;;;1999.90;999.90;;;;;;;;;;4937429;29;20228;-70
2022/03/03 03:04:37;;;;;;;1999.90;999.90;;;;;;;;;;4937053;29;20722;-70
2022/03/03 03:07:22;;;;;;;1999.90;999.90;;;;;;;;;;4937086;29;20296;-70
2022/03/03 03:10:09;;;;;;;1999.90;999.90;;;;;;;;;;4917889;29;20213;-70
2022/03/03 03:12:53;;;;;;;1999.90;999.90;;;;;;;;;;4923001;29;20213;-70
2022/03/03 03:15:39;;;;;;;1999.90;999.90;;;;;;;;;;4937199;29;20205;-69
2022/03/03 03:18:24;;;;;;;1999.90;999.90;;;;;;;;;;4936136;29;20213;-70
2022/03/03 03:21:09;;;;;;;1999.90;999.90;;;;;;;;;;4936843;29;20225;-70
2022/03/03 03:23:54;;;;;;;1999.90;999.90;;;;;;;;;;4936803;29;20232;-70
2022/03/03 03:26:40;;;;;;;1999.90;999.90;;;;;;;;;;4937210;29;20333;-69
2022/03/03 03:29:25;;;;;;;1999.90;999.90;;;;;;;;;;4935481;29;20275;-70
2022/03/03 03:32:10;;;;;;;1999.90;999.90;;;;;;;;;;4936766;29;20232;-69
2022/03/03 03:34:55;;;;;;;1999.90;999.90;;;;;;;;;;4936333;29;20232;-70
2022/03/03 03:37:40;;;;;;;1999.90;999.90;;;;;;;;;;4935753;29;20293;-69
2022/03/03 03:40:25;;;;;;;1999.90;999.90;;;;;;;;;;4936779;29;20348;-70
2022/03/03 03:43:11;;;;;;;1999.90;999.90;;;;;;;;;;4936076;29;20297;-70
2022/03/03 03:45:56;;;;;;;1999.90;999.90;;;;;;;;;;4936418;29;20520;-70
2022/03/03 03:48:41;;;;;;;1999.90;999.90;;;;;;;;;;4935693;29;20212;-70
2022/03/03 03:51:26;;;;;;;1999.90;999.90;;;;;;;;;;4936701;29;20746;-69
2022/03/03 03:54:12;;;;;;;1999.90;999.90;;;;;;;;;;4935792;29;20289;-68
2022/03/03 03:56:57;;;;;;;1999.90;999.90;;;;;;;;;;4936396;29;20232;-70
2022/03/03 03:59:44;;;;;;;1999.90;999.90;;;;;;;;;;4935869;29;20737;-70
2022/03/03 04:02:29;;;;;;;1999.90;999.90;;;;;;;;;;4936013;29;20232;-70
2022/03/03 04:05:14;;;;;;;1999.90;999.90;;;;;;;;;;4936473;29;20281;-70
2022/03/03 04:08:00;;;;;;;1999.90;999.90;;;;;;;;;;4934588;29;20349;-70
2022/03/03 04:10:45;;;;;;;1999.90;999.90;;;;;;;;;;4935199;29;20422;-70
2022/03/03 04:13:30;;;;;;;1999.90;999.90;;;;;;;;;;4935676;29;20209;-70
2022/03/03 04:16:16;;;;;;;1999.90;999.90;;;;;;;;;;4935638;29;20226;-70
2022/03/03 04:19:01;;;;;;;1999.90;999.90;;;;;;;;;;4934962;29;20322;-70
2022/03/03 04:21:46;;;;;;;1999.90;999.90;;;;;;;;;;4935999;29;20237;-70
2022/03/03 04:24:31;;;;;;;1999.90;999.90;;;;;;;;;;4935711;29;20216;-70
2022/03/03 04:27:16;;;;;;;1999.90;999.90;;;;;;;;;;4935563;29;20208;-70
2022/03/03 04:30:01;;;;;;;1999.90;999.90;;;;;;;;;;4935185;29;20212;-70
2022/03/03 04:32:47;;;;;;;1999.90;999.90;;;;;;;;;;4935286;29;20220;-71
2022/03/03 04:35:32;;;;;;;1999.90;999.90;;;;;;;;;;4935608;29;20204;-71
2022/03/03 04:38:17;;;;;;;1999.90;999.90;;;;;;;;;;4934525;29;20213;-70
2022/03/03 04:41:02;;;;;;;1999.90;999.90;;;;;;;;;;4935442;29;20612;-70
2022/03/03 04:43:47;;;;;;;1999.90;999.90;;;;;;;;;;4935576;29;20213;-70
2022/03/03 04:46:32;;;;;;;1999.90;999.90;;;;;;;;;;4935180;29;20234;-70
2022/03/03 04:49:18;;;;;;;1999.90;999.90;;;;;;;;;;4933059;29;20450;-69
2022/03/03 04:52:03;;;;;;;1999.90;999.90;;;;;;;;;;4940883;28;20585;-70
2022/03/03 04:54:48;;;;;;;1999.90;999.90;;;;;;;;;;4933244;29;20812;-70
2022/03/03 04:57:33;;;;;;;1999.90;999.90;;;;;;;;;;4950211;29;20231;-71
2022/03/03 05:00:19;;;;;;;1999.90;999.90;;;;;;;;;;4952445;28;20347;-70
2022/03/03 05:03:05;;;;;;;1999.90;999.90;;;;;;;;;;4953599;29;20215;-69
2022/03/03 05:05:52;;;;;;;1999.90;999.90;;;;;;;;;;4945252;29;20224;-69
2022/03/03 05:08:37;;;;;;;1999.90;999.90;;;;;;;;;;4934503;29;20337;-69
2022/03/03 05:11:21;;;;;;;1999.90;999.90;;;;;;;;;;4934940;29;20237;-70
2022/03/03 05:14:07;;;;;;;1999.90;999.90;;;;;;;;;;4934761;29;20304;-70
2022/03/03 05:16:52;;;;;;;1999.90;999.90;;;;;;;;;;4935072;29;20268;-70
2022/03/03 05:19:37;;;;;;;1999.90;999.90;;;;;;;;;;4933346;29;20426;-70
2022/03/03 05:22:23;;;;;;;1999.90;999.90;;;;;;;;;;4934494;29;20250;-70
2022/03/03 05:25:10;;;;;;;1999.90;999.90;;;;;;;;;;4934496;29;20301;-70
2022/03/03 05:27:54;;;;;;;1999.90;999.90;;;;;;;;;;4951716;29;20283;-71
2022/03/03 05:30:39;;;;;;;1999.90;999.90;;;;;;;;;;4941184;29;20241;-70
2022/03/03 05:33:24;;;;;;;1999.90;999.90;;;;;;;;;;4935090;29;20281;-70
2022/03/03 05:36:10;;;;;;;1999.90;999.90;;;;;;;;;;4934104;29;20213;-70
2022/03/03 05:38:57;;;;;;;1999.90;999.90;;;;;;;;;;4933802;29;20235;-70
2022/03/03 05:41:42;;;;;;;1999.90;999.90;;;;;;;;;;4934511;29;20492;-70
2022/03/03 05:44:27;;;;;;;1999.90;999.90;;;;;;;;;;4934813;29;20216;-69
2022/03/03 05:47:13;;;;;;;1999.90;999.90;;;;;;;;;;4934583;29;20212;-70
2022/03/03 05:49:59;;;;;;;1999.90;999.90;;;;;;;;;;4933803;29;20455;-70
2022/03/03 05:52:43;;;;;;;1999.90;999.90;;;;;;;;;;4934470;29;20221;-70
2022/03/03 05:55:30;;;;;;;1999.90;999.90;;;;;;;;;;4934768;29;20249;-70
2022/03/03 05:58:15;;;;;;;1999.90;999.90;;;;;;;;;;4914652;29;20236;-70
2022/03/03 06:01:01;;;;;;;1999.90;999.90;;;;;;;;;;4924600;29;20348;-70
2022/03/03 06:03:47;;;;;;;1999.90;999.90;;;;;;;;;;4934645;29;20209;-71
2022/03/03 06:06:34;;;;;;;1999.90;999.90;;;;;;;;;;4936901;29;20438;-70
2022/03/03 06:09:23;;;;;;;1999.90;999.90;;;;;;;;;;4937609;29;20253;-70
2022/03/03 06:12:13;;;;;;;1999.90;999.90;;;;;;;;;;4937790;29;20245;-70
2022/03/03 06:15:01;;;;;;;1999.90;999.90;;;;;;;;;;4938065;29;20198;-70
2022/03/03 06:17:48;;;;;;;1999.90;999.90;;;;;;;;;;4937585;29;20715;-70
2022/03/03 06:20:34;;;;;;;1999.90;999.90;;;;;;;;;;4937747;29;20818;-70
2022/03/03 06:23:19;;;;;;;1999.90;999.90;;;;;;;;;;4937649;29;20214;-70
2022/03/03 06:26:05;;;;;;;1999.90;999.90;;;;;;;;;;4937551;29;20434;-69
2022/03/03 06:28:52;;;;;;;1999.90;999.90;;;;;;;;;;4937161;29;20725;-70
2022/03/03 06:31:37;;;;;;;1999.90;999.90;;;;;;;;;;4937402;29;20273;-71
2022/03/03 06:34:23;;;;;;;1999.90;999.90;;;;;;;;;;4937526;29;20212;-70
2022/03/03 06:37:08;;;;;;;1999.90;999.90;;;;;;;;;;4918466;29;20282;-70
2022/03/03 06:39:53;;;;;;;1999.90;999.90;;;;;;;;;;4919745;29;20346;-70
2022/03/03 06:42:38;;;;;;;1999.90;999.90;;;;;;;;;;4918304;29;20317;-70
2022/03/03 06:45:25;;;;;;;1999.90;999.90;;;;;;;;;;4923818;29;20215;-70
2022/03/03 06:48:11;;;;;;;1999.90;999.90;;;;;;;;;;4936213;29;20292;-68
2022/03/03 06:50:57;;;;;;;1999.90;999.90;;;;;;;;;;4938477;29;20370;-70
2022/03/03 06:53:44;;;;;;;1999.90;999.90;;;;;;;;;;4937017;29;20201;-69
2022/03/03 06:56:30;;;;;;;1999.90;999.90;;;;;;;;;;4936949;29;20201;-69
2022/03/03 06:59:17;;;;;;;1999.90;999.90;;;;;;;;;;4953537;29;20208;-70
2022/03/03 07:02:03;;;;;;;1999.90;999.90;;;;;;;;;;4956888;28;20232;-70
2022/03/03 07:04:49;;;;;;;1999.90;999.90;;;;;;;;;;4956901;29;20764;-70
2022/03/03 07:07:35;;;;;;;1999.90;999.90;;;;;;;;;;4957250;29;20208;-70
2022/03/03 07:10:23;;;;;;;1999.90;999.90;;;;;;;;;;4956918;28;20212;-70
2022/03/03 07:13:08;;;;;;;1999.90;999.90;;;;;;;;;;4957068;29;20321;-70
2022/03/03 07:15:54;;;;;;;1999.90;999.90;;;;;;;;;;4957658;29;20205;-71
2022/03/03 07:18:43;;;;;;;1999.90;999.90;;;;;;;;;;4955913;29;20275;-70
2022/03/03 07:21:32;;;;;;;1999.90;999.90;;;;;;;;;;4957298;28;20325;-69
2022/03/03 07:24:21;;;;;;;1999.90;999.90;;;;;;;;;;4957247;29;20703;-70
2022/03/03 07:27:08;;;;;;;1999.90;999.90;;;;;;;;;;4953303;29;20438;-70
2022/03/03 07:29:55;;;;;;;1999.90;999.90;;;;;;;;;;4926088;29;20212;-70
2022/03/03 07:32:47;;;;;;;1999.90;999.90;;;;;;;;;;4938558;29;20748;-70
2022/03/03 07:35:34;;;;;;;1999.90;999.90;;;;;;;;;;4933382;29;20209;-71
2022/03/03 07:38:21;;;;;;;1999.90;999.90;;;;;;;;;;4930376;29;20609;-70
2022/03/03 07:41:08;;;;;;;1999.90;999.90;;;;;;;;;;4933781;29;20229;-69
2022/03/03 07:43:53;;;;;;;1999.90;999.90;;;;;;;;;;4931804;29;20771;-68
2022/03/03 07:46:39;;;;;;;1999.90;999.90;;;;;;;;;;4934080;29;20215;-67
2022/03/03 07:49:24;;;;;;;1999.90;999.90;;;;;;;;;;4933111;29;20288;-67
2022/03/03 07:52:10;;;;;;;1999.90;999.90;;;;;;;;;;4933947;29;20237;-68
2022/03/03 07:54:55;;;;;;;1999.90;999.90;;;;;;;;;;4934327;29;20234;-67
2022/03/03 07:57:41;;;;;;;1999.90;999.90;;;;;;;;;;4932351;29;20229;-67
2022/03/03 08:00:28;;;;;;;1999.90;999.90;;;;;;;;;;4933101;29;20217;-68
2022/03/03 08:03:15;;;;;;;1999.90;999.90;;;;;;;;;;4933551;29;20211;-69
2022/03/03 08:06:01;;;;;;;1999.90;999.90;;;;;;;;;;4932168;29;20701;-69
2022/03/03 08:08:48;;;;;;;1999.90;999.90;;;;;;;;;;4932995;29;20699;-70
2022/03/03 08:11:33;;;;;;;1999.90;999.90;;;;;;;;;;4933532;29;20235;-69
2022/03/03 08:14:18;;;;;;;1999.90;999.90;;;;;;;;;;4934825;29;20215;-69
2022/03/03 08:17:03;;;;;;;1999.90;999.90;;;;;;;;;;4933686;29;20231;-70
2022/03/03 08:19:49;;;;;;;1999.90;999.90;;;;;;;;;;4932719;29;20348;-68
2022/03/03 08:22:34;;;;;;;1999.90;999.90;;;;;;;;;;4933657;29;20223;-68
2022/03/03 08:25:22;;;;;;;1999.90;999.90;;;;;;;;;;4933402;29;20218;-69
2022/03/03 08:28:09;;;;;;;1999.90;999.90;;;;;;;;;;4932463;29;20292;-69
2022/03/03 08:30:58;;;;;;;1999.90;999.90;;;;;;;;;;4932356;29;20426;-68
2022/03/03 08:33:47;;;;;;;1999.90;999.90;;;;;;;;;;4933508;29;20283;-69
2022/03/03 08:36:35;;;;;;;1999.90;999.90;;;;;;;;;;4933479;29;20212;-69
2022/03/03 08:39:23;;;;;;;1999.90;999.90;;;;;;;;;;4931077;29;20229;-69
2022/03/03 08:42:12;;;;;;;1999.90;999.90;;;;;;;;;;4933841;29;20241;-69
2022/03/03 08:45:02;;;;;;;1999.90;999.90;;;;;;;;;;4930307;29;21155;-68
2022/03/03 08:47:51;;;;;;;1999.90;999.90;;;;;;;;;;4932218;29;20205;-69
2022/03/03 08:50:37;;;;;;;1999.90;999.90;;;;;;;;;;4933708;29;20205;-70
2022/03/03 08:53:22;;;;;;;1999.90;999.90;;;;;;;;;;4932807;29;20253;-70
2022/03/03 08:56:08;;;;;;;1999.90;999.90;;;;;;;;;;4932973;29;20219;-69
2022/03/03 08:58:55;;;;;;;1999.90;999.90;;;;;;;;;;4929855;29;20277;-69
2022/03/03 09:01:40;;;;;;;1999.90;999.90;;;;;;;;;;4931759;29;20494;-69
2022/03/03 09:04:25;;;;;;;1999.90;999.90;;;;;;;;;;4931310;29;20247;-69
2022/03/03 09:07:10;;;;;;;1999.90;999.90;;;;;;;;;;4932114;29;20260;-70
2022/03/03 09:09:55;;;;;;;1999.90;999.90;;;;;;;;;;4930535;29;20206;-70
2022/03/03 09:12:40;;;;;;;1999.90;999.90;;;;;;;;;;4931734;29;20361;-70
2022/03/03 09:15:30;;;;;;;1999.90;999.90;;;;;;;;;;4931613;29;20237;-70
2022/03/03 09:18:15;;;;;;;1999.90;999.90;;;;;;;;;;4929154;29;20229;-70
2022/03/03 09:21:00;;;;;;;1999.90;999.90;;;;;;;;;;4930514;29;20272;-71
2022/03/03 09:23:45;;;;;;;1999.90;999.90;;;;;;;;;;4932502;29;20213;-70
2022/03/03 09:26:30;;;;;;;1999.90;999.90;;;;;;;;;;4932603;29;20263;-69
2022/03/03 09:29:17;;;;;;;1999.90;999.90;;;;;;;;;;4931654;29;20799;-70
2022/03/03 09:32:04;;;;;;;1999.90;999.90;;;;;;;;;;4933400;29;20403;-71
2022/03/03 09:34:50;;;;;;;1999.90;999.90;;;;;;;;;;4932934;29;20575;-68
2022/03/03 09:37:35;;;;;;;1999.90;999.90;;;;;;;;;;4933038;29;20355;-69
2022/03/03 09:40:19;;;;;;;1999.90;999.90;;;;;;;;;;4932499;29;20600;-68
2022/03/03 09:43:05;;;;;;;1999.90;999.90;;;;;;;;;;4934150;29;20209;-70
2022/03/03 09:45:51;;;;;;;1999.90;999.90;;;;;;;;;;4933463;29;20215;-70
2022/03/03 09:48:37;;;;;;;1999.90;999.90;;;;;;;;;;4935847;29;20245;-70
2022/03/03 09:51:22;;;;;;;1999.90;999.90;;;;;;;;;;4934817;29;20731;-70
2022/03/03 09:54:07;;;;;;;1999.90;999.90;;;;;;;;;;4936141;29;20258;-70
2022/03/03 09:56:52;;;;;;;1999.90;999.90;;;;;;;;;;4934697;29;20693;-71
2022/03/03 09:59:37;;;;;;;1999.90;999.90;;;;;;;;;;4935338;29;20235;-70
2022/03/03 10:02:22;;;;;;;1999.90;999.90;;;;;;;;;;4937610;29;20713;-68
2022/03/03 10:05:08;;;;;;;1999.90;999.90;;;;;;;;;;4934480;29;20547;-67
2022/03/03 10:07:59;;;;;;;1999.90;999.90;;;;;;;;;;4935466;29;20335;-69
2022/03/03 10:10:44;;;;;;;1999.90;999.90;;;;;;;;;;4935616;29;20347;-69
2022/03/03 10:13:44;;;;;;;1999.90;999.90;;;;;;;;;;4934155;29;20698;-69
2022/03/03 10:16:31;;;;;;;1999.90;999.90;;;;;;;;;;4937894;29;20740;-70
2022/03/03 10:19:16;;;;;;;1999.90;999.90;;;;;;;;;;4939412;29;20721;-69
2022/03/03 10:22:02;;;;;;;1999.90;999.90;;;;;;;;;;4937365;29;20242;-69
2022/03/03 10:24:50;;;;;;;1999.90;999.90;;;;;;;;;;4935738;29;20338;-69
2022/03/03 10:27:35;;;;;;;1999.90;999.90;;;;;;;;;;4936020;29;20204;-68
2022/03/03 10:30:21;;;;;;;1999.90;999.90;;;;;;;;;;4935928;29;20216;-70
2022/03/03 10:33:14;;;;;;;1999.90;999.90;;;;;;;;;;4936181;29;20296;-70
2022/03/03 10:36:04;;;;;;;1999.90;999.90;;;;;;;;;;4934636;29;20395;-70
2022/03/03 10:38:52;;;;;;;1999.90;999.90;;;;;;;;;;4934879;29;20349;-69
2022/03/03 10:41:38;;;;;;;1999.90;999.90;;;;;;;;;;4935262;29;20245;-70
2022/03/03 10:44:24;;;;;;;1999.90;999.90;;;;;;;;;;4936005;29;20341;-70
2022/03/03 10:47:11;;;;;;;1999.90;999.90;;;;;;;;;;4934905;29;20219;-69
2022/03/03 10:49:57;;;;;;;1999.90;999.90;;;;;;;;;;4933449;29;20216;-71
2022/03/03 10:52:41;;;;;;;1999.90;999.90;;;;;;;;;;4933153;29;20742;-71
2022/03/03 10:55:28;;;;;;;1999.90;999.90;;;;;;;;;;4935771;29;20216;-69
2022/03/03 10:58:12;;;;;;;1999.90;999.90;;;;;;;;;;4932115;29;20356;-67
2022/03/03 11:00:57;;;;;;;1999.90;999.90;;;;;;;;;;4934397;29;20352;-69
2022/03/03 11:03:49;;;;;;;1999.90;999.90;;;;;;;;;;4935555;29;20205;-70
2022/03/03 11:06:34;;;;;;;1999.90;999.90;;;;;;;;;;4935206;29;20264;-70
2022/03/03 11:09:20;;;;;;;1999.90;999.90;;;;;;;;;;4933612;29;20209;-70
2022/03/03 11:12:07;;;;;;;1999.90;999.90;;;;;;;;;;4935703;29;20254;-70
2022/03/03 11:14:53;;;;;;;1999.90;999.90;;;;;;;;;;4935654;29;20340;-69
2022/03/03 11:17:38;;;;;;;1999.90;999.90;;;;;;;;;;4934991;29;20351;-71
2022/03/03 11:20:23;;;;;;;1999.90;999.90;;;;;;;;;;4934506;29;20564;-69
2022/03/03 11:23:09;;;;;;;1999.90;999.90;;;;;;;;;;4932987;29;20225;-69
2022/03/03 11:25:53;;;;;;;1999.90;999.90;;;;;;;;;;4935124;29;20217;-68
2022/03/03 11:28:40;;;;;;;1999.90;999.90;;;;;;;;;;4933685;29;20622;-69
2022/03/03 11:31:28;;;;;;;1999.90;999.90;;;;;;;;;;4935059;29;20621;-70
2022/03/03 11:34:23;;;;;;;1999.90;999.90;;;;;;;;;;4935180;29;20210;-69
2022/03/03 11:37:16;;;;;;;1999.90;999.90;;;;;;;;;;4934956;29;20281;-70
2022/03/03 11:40:02;;;;;;;1999.90;999.90;;;;;;;;;;4931883;29;20446;-69
2022/03/03 11:42:48;;;;;;;1999.90;999.90;;;;;;;;;;4934161;29;20288;-69
2022/03/03 11:45:37;;;;;;;1999.90;999.90;;;;;;;;;;4934291;29;20213;-68
2022/03/03 11:48:23;;;;;;;1999.90;999.90;;;;;;;;;;4931509;29;20261;-67
2022/03/03 11:51:26;;;;;;;1999.90;999.90;;;;;;;;;;4934272;29;20305;-69
2022/03/03 11:54:12;;;;;;;1999.90;999.90;;;;;;;;;;4933937;29;20221;-70
2022/03/03 11:57:15;;;;;;;1999.90;999.90;;;;;;;;;;4932914;29;20221;-68
2022/03/03 12:00:03;;;;;;;1999.90;999.90;;;;;;;;;;4931692;29;20240;-69
2022/03/03 12:02:56;;;;;;;1999.90;999.90;;;;;;;;;;4933982;29;20224;-70
2022/03/03 12:05:43;;;;;;;1999.90;999.90;;;;;;;;;;4932651;29;20346;-70
2022/03/03 12:08:33;;;;;;;1999.90;999.90;;;;;;;;;;4931693;29;20483;-69
2022/03/03 12:11:18;;;;;;;1999.90;999.90;;;;;;;;;;4933969;29;20267;-67
2022/03/03 12:14:03;;;;;;;1999.90;999.90;;;;;;;;;;4934159;29;20220;-69
2022/03/03 12:16:48;;;;;;;1999.90;999.90;;;;;;;;;;4933798;29;20396;-69
2022/03/03 12:19:36;;;;;;;1999.90;999.90;;;;;;;;;;4932099;29;20225;-68
2022/03/03 12:22:25;;;;;;;1999.90;999.90;;;;;;;;;;4933495;29;20252;-69
2022/03/03 12:25:11;;;;;;;1999.90;999.90;;;;;;;;;;4934385;29;20209;-68
2022/03/03 12:28:15;;;;;;;1999.90;999.90;;;;;;;;;;4933579;29;20209;-70
2022/03/03 12:31:00;;;;;;;1999.90;999.90;;;;;;;;;;4933004;29;20727;-69
2022/03/03 12:33:54;;;;;;;1999.90;999.90;;;;;;;;;;4933075;29;20204;-68
2022/03/03 12:36:44;;;;;;;1999.90;999.90;;;;;;;;;;4933185;29;20209;-68
2022/03/03 12:39:29;;;;;;;1999.90;999.90;;;;;;;;;;4933404;29;20592;-69
2022/03/03 12:42:14;;;;;;;1999.90;999.90;;;;;;;;;;4935309;29;20248;-68
2022/03/03 12:45:00;;;;;;;1999.90;999.90;;;;;;;;;;4918029;29;20210;-70
2022/03/03 12:47:46;;;;;;;1999.90;999.90;;;;;;;;;;4936837;29;20201;-69
2022/03/03 12:50:33;;;;;;;1999.90;999.90;;;;;;;;;;4935948;29;20257;-70
2022/03/03 12:53:19;;;;;;;1999.90;999.90;;;;;;;;;;4935935;29;20715;-69
2022/03/03 12:56:07;;;;;;;1999.90;999.90;;;;;;;;;;4935876;29;20212;-69
2022/03/03 12:58:53;;;;;;;1999.90;999.90;;;;;;;;;;4935068;29;20225;-69
2022/03/03 13:01:38;;;;;;;1999.90;999.90;;;;;;;;;;4936059;29;20763;-70
2022/03/03 13:04:24;;;;;;;1999.90;999.90;;;;;;;;;;4935999;29;20257;-70
2022/03/03 13:07:11;;;;;;;1999.90;999.90;;;;;;;;;;4934804;29;20702;-70
2022/03/03 13:09:57;;;;;;;1999.90;999.90;;;;;;;;;;4933736;29;20800;-69
2022/03/03 13:12:43;;;;;;;1999.90;999.90;;;;;;;;;;4935117;29;20233;-69
2022/03/03 13:15:32;;;;;;;1999.90;999.90;;;;;;;;;;4934554;29;20216;-69
2022/03/03 13:18:17;;;;;;;1999.90;999.90;;;;;;;;;;4935281;29;20225;-69
2022/03/03 13:21:05;;;;;;;1999.90;999.90;;;;;;;;;;4936190;29;20606;-69
2022/03/03 13:23:54;;;;;;;1999.90;999.90;;;;;;;;;;4936439;29;20209;-70
2022/03/03 13:26:45;;;;;;;1999.90;999.90;;;;;;;;;;4938934;29;20213;-70
2022/03/03 13:29:31;;;;;;;1999.90;999.90;;;;;;;;;;4931243;29;20315;-70
2022/03/03 13:32:16;;;;;;;1999.90;999.90;;;;;;;;;;4934433;29;20228;-70
2022/03/03 13:35:00;;;;;;;1999.90;999.90;;;;;;;;;;4933846;29;20277;-68
2022/03/03 13:37:46;;;;;;;1999.90;999.90;;;;;;;;;;4932261;29;20645;-70
2022/03/03 13:40:31;;;;;;;1999.90;999.90;;;;;;;;;;4934963;29;20450;-69
2022/03/03 13:43:24;;;;;;;1999.90;999.90;;;;;;;;;;4938581;29;20293;-70
2022/03/03 13:46:10;;;;;;;1999.90;999.90;;;;;;;;;;4930843;29;20210;-70
2022/03/03 13:48:54;;;;;;;1999.90;999.90;;;;;;;;;;4930302;29;20226;-70
2022/03/03 13:51:39;;;;;;;1999.90;999.90;;;;;;;;;;4930421;29;20229;-70
2022/03/03 13:54:24;;;;;;;1999.90;999.90;;;;;;;;;;4932590;29;20349;-70
2022/03/03 13:57:09;;;;;;;1999.90;999.90;;;;;;;;;;4932178;29;20228;-70
2022/03/03 13:59:56;;;;;;;1999.90;999.90;;;;;;;;;;4930672;29;20217;-69
2022/03/03 14:02:51;;;;;;;1999.90;999.90;;;;;;;;;;4930307;29;20241;-70
2022/03/03 14:05:38;;;;;;;1999.90;999.90;;;;;;;;;;4932043;29;20222;-69
2022/03/03 14:08:24;;;;;;;1999.90;999.90;;;;;;;;;;4931906;29;20209;-68
2022/03/03 14:11:11;;;;;;;1999.90;999.90;;;;;;;;;;4932361;29;20233;-69
2022/03/03 14:13:57;;;;;;;1999.90;999.90;;;;;;;;;;4934719;29;20584;-71
2022/03/03 14:16:43;;;;;;;1999.90;999.90;;;;;;;;;;4934701;29;20225;-71
2022/03/03 14:19:29;;;;;;;1999.90;999.90;;;;;;;;;;4933443;29;20233;-71
2022/03/03 14:22:17;;;;;;;1999.90;999.90;;;;;;;;;;4934417;29;20273;-70
2022/03/03 14:25:02;;;;;;;1999.90;999.90;;;;;;;;;;4934255;29;20218;-70
2022/03/03 14:27:47;;;;;;;1999.90;999.90;;;;;;;;;;4936668;29;20680;-70
2022/03/03 14:30:32;;;;;;;1999.90;999.90;;;;;;;;;;4936731;29;20229;-69
2022/03/03 14:33:19;;;;;;;1999.90;999.90;;;;;;;;;;4924949;29;20782;-71
2022/03/03 14:36:04;;;;;;;1999.90;999.90;;;;;;;;;;4937333;29;20217;-70
2022/03/03 14:38:50;;;;;;;1999.90;999.90;;;;;;;;;;4936879;29;20209;-70
2022/03/03 14:41:35;;;;;;;1999.90;999.90;;;;;;;;;;4937429;29;20237;-70
2022/03/03 14:44:20;;;;;;;1999.90;999.90;;;;;;;;;;4936472;29;20558;-70
2022/03/03 14:47:05;;;;;;;1999.90;999.90;;;;;;;;;;4937679;29;20345;-70
2022/03/03 14:49:52;;;;;;;1999.90;999.90;;;;;;;;;;4937024;29;20333;-70
2022/03/03 14:52:37;;;;;;;1999.90;999.90;;;;;;;;;;4937520;29;20239;-71
2022/03/03 14:55:22;;;;;;;1999.90;999.90;;;;;;;;;;4938166;29;20233;-69
2022/03/03 14:58:07;;;;;;;1999.90;999.90;;;;;;;;;;4938072;29;20369;-69
2022/03/03 15:00:53;;;;;;;1999.90;999.90;;;;;;;;;;4922398;29;20232;-70
2022/03/03 15:03:38;;;;;;;1999.90;999.90;;;;;;;;;;4938554;29;20329;-69
2022/03/03 15:06:24;;;;;;;1999.90;999.90;;;;;;;;;;4938814;29;20212;-71
2022/03/03 15:09:09;;;;;;;1999.90;999.90;;;;;;;;;;4938409;29;20221;-70
2022/03/03 15:11:54;;;;;;;1999.90;999.90;;;;;;;;;;4932182;29;20242;-69
2022/03/03 15:14:39;;;;;;;1999.90;999.90;;;;;;;;;;4916689;29;20496;-69
2022/03/03 15:17:24;;;;;;;1999.90;999.90;;;;;;;;;;4935636;29;20300;-69
2022/03/03 15:20:10;;;;;;;1999.90;999.90;;;;;;;;;;4936522;29;20224;-69
2022/03/03 15:22:57;;;;;;;1999.90;999.90;;;;;;;;;;4936722;29;20206;-70
2022/03/03 15:25:41;;;;;;;1999.90;999.90;;;;;;;;;;4937438;29;20323;-68
2022/03/03 15:28:26;;;;;;;1999.90;999.90;;;;;;;;;;4936266;29;20201;-70